Rothsay, Minnesota
Current Conditions -  °F | °C
As of 6:14 PM on Wednesday 26 Nov 2014 (Local Time) from KFFM Reporting Station
Clear Clear  
Wind Chill: -19°   Ceiling: Unl
Heat Index:   Visibility: 10mi
Dew Point: -8°   Wind: 14mph
Humidity: 72%   Direction: 350°N
Pressure: 30.48"   Gusts: 24mph
Location:  46.47°N, 96.29°W
Report Text: KFFM 270014Z AUTO 35012G21KT 10SM CLR M18/M22 A3048 RMK AO2
Loading
Personal Weather Stations






























Interactive Weather Map New forecast layout! Learn more

10-Day Weather Forecast

Advertisements
Track Severe Weather on mobile